• Join FlightAware (Why Join?)
  • Login
  • US Flag 
05:50AM EDT


 

Airport Tracker/Info


-or-


 

Live Flight TrackerFlight Track Log ✈ UJC329 ✈ 24-Sep-2013 ✈ KTEB - KLUK

Flight Track Log - Related Links

Times and Time Zones

All times are in EDT time to prevent confusion due to time zone crossing. See the UJC329 flight status page for this flight to view local times or setup timezone preferences in your user account.

Time Position Orientation Groundspeed Altitude Reporting Facility
EDT Latitude Longitude Course Direction KTS MPH feet Rate Location/Type
05:18PM 40.9000 -74.0500 239° Southwest 204 235 2,100  Level New York TRACON
05:19PM 40.9167 -74.1333 285° West 222 255 4,100 2,040 Climbing New York TRACON
05:20PM 40.9333 -74.2167 285° West 272 313 6,000 1,680 Climbing New York TRACON
05:21PM 40.9167 -74.3167 258° West 275 316 7,500 1,980 Climbing New York TRACON
05:22PM 40.9142 -74.3983 268° West 280 322 9,400 2,220 Climbing New York Center
05:23PM 40.7763 -74.6601 239° Southwest  Level Estimated
05:23PM 40.8886 -74.4875 249° West 300 345 11,400  Level New York Center
05:24PM 40.8494 -74.6033 246° West 332 382 12,800 1,440 Climbing New York Center
05:25PM 40.8150 -74.7028 245° Southwest 337 388 14,300 1,500 Climbing New York Center
05:26PM 40.7708 -74.8319 246° West 342 394 15,900 1,320 Climbing New York Center
05:27PM 40.7294 -74.9500 245° Southwest 352 405 17,000 1,080 Climbing New York Center
05:32PM 40.4510 -75.5840 245° Southwest 100 115 23,700 1,020 Climbing FlightAware
05:33PM 40.4140 -75.6660 239° Southwest 350 403 24,200 1,260 Climbing FlightAware
05:34PM 40.3820 -75.7310 237° Southwest 354 407 25,400 1,200 Climbing FlightAware
05:35PM 40.3440 -75.8130 239° Southwest 350 403 25,900 300 Climbing FlightAware
05:35PM 40.3180 -75.8690 239° Southwest 350 403 25,900  Level FlightAware
05:36PM 40.2910 -75.9240 237° Southwest 350 403 25,900 1,740 Level FlightAware
05:36PM 40.2490 -76.0170 239° Southwest 350 403 28,000 1,740 Climbing FlightAware
05:37PM 40.2200 -76.0810 239° Southwest 378 435 28,000  Level FlightAware
05:38PM 40.1770 -76.1690 237° Southwest 385 443 28,000  Level FlightAware
05:38PM 40.1460 -76.2300 236° Southwest 385 443 28,000  Level FlightAware
05:39PM 40.1160 -76.2890 236° Southwest 385 443 28,000  Level FlightAware
05:40PM 40.0840 -76.3500 236° Southwest 385 443 28,000  Level FlightAware
05:40PM 40.0540 -76.4090 236° Southwest 385 443 28,000 840 Level FlightAware
05:41PM 40.0110 -76.5230 244° Southwest 385 443 29,000 900 Climbing FlightAware
05:41PM 39.9810 -76.5910 240° Southwest 397 457 29,000  Level FlightAware
05:42PM 39.9430 -76.6760 240° Southwest 362 417 29,000  Level FlightAware
05:43PM 39.9150 -76.7350 238° Southwest 362 417 29,000 360 Level FlightAware
05:43PM 39.8670 -76.8410 239° Southwest 340 391 29,500 360 Climbing FlightAware
05:44PM 39.8400 -76.9010 240° Southwest 340 391 29,500  Level FlightAware
05:45PM 39.8140 -76.9580 239° Southwest 340 391 29,500  Level FlightAware
05:45PM 39.7920 -77.0100 241° Southwest 340 391 29,500  Level FlightAware
05:46PM 39.7680 -77.0640 240° Southwest 340 391 29,500  Level FlightAware
05:46PM 39.7430 -77.1200 240° Southwest 340 391 29,500  Level FlightAware
05:47PM 39.7190 -77.1740 240° Southwest 340 391 29,500 300 Level FlightAware
05:48PM 39.6000 -77.4014 240° Southwest 388 447 30,000 240 Climbing Washington Center
05:49PM 39.5461 -77.5158 239° Southwest 383 441 30,000  Level Washington Center
05:50PM 39.4900 -77.6325 238° Southwest 383 441 30,000  Level Washington Center
05:51PM 39.4361 -77.7467 239° Southwest 383 441 30,000  Level Washington Center
05:52PM 39.3797 -77.8603 237° Southwest 383 441 30,000  Level Washington Center
05:53PM 39.3292 -77.9956 244° Southwest 383 441 30,000  Level Washington Center
05:54PM 39.2811 -78.1119 242° Southwest 378 435 30,000  Level Washington Center
05:55PM 39.2325 -78.2308 242° Southwest 373 429 30,000  Level Washington Center
05:56PM 39.1861 -78.3497 243° Southwest 373 429 30,000  Level Washington Center
05:57PM 39.1397 -78.4683 243° Southwest 373 429 30,000  Level Washington Center
05:58PM 39.0908 -78.5842 241° Southwest 373 429 30,000  Level Washington Center
05:59PM 39.0442 -78.7053 244° Southwest 378 435 30,000  Level Washington Center
06:00PM 38.9950 -78.8261 242° Southwest 378 435 30,000  Level Washington Center
06:01PM 38.9439 -78.9439 241° Southwest 378 435 30,000  Level Washington Center
06:02PM 38.8967 -79.0644 243° Southwest 378 435 30,000  Level Washington Center
06:03PM 38.8517 -79.1769 243° Southwest 378 435 30,000  Level Washington Center
06:04PM 38.8394 -79.3017 263° West 361 415 30,000  Level Washington Center
06:05PM 38.8375 -79.4322 269° West 361 415 30,000  Level Washington Center
06:06PM 38.8356 -79.5600 269° West 361 415 30,000  Level Washington Center
06:07PM 38.8331 -79.6931 269° West 374 430 30,000  Level Washington Center
06:08PM 38.8306 -79.8261 269° West 374 430 30,000  Level Washington Center
06:08PM 38.8258 -79.8861 264° West 365 420 30,000  Level Indianapolis Center
06:09PM 38.8222 -80.0172 268° West 367 422 30,000  Level Indianapolis Center
06:10PM 38.8197 -80.1483 269° West 369 425 30,000  Level Indianapolis Center
06:12PM 38.8131 -80.2810 266° West  Level FlightAware Approximate
06:12PM 38.8117 -80.4167 266° West 376 433 30,000  Level Indianapolis Center
06:14PM 38.8083 -80.5483 268° West 372 428 30,000  Level Indianapolis Center
06:15PM 38.8042 -80.6819 268° West 373 429 30,000  Level Indianapolis Center
06:16PM 38.7994 -80.8408 268° West 374 430 30,000  Level Indianapolis Center
06:17PM 38.7950 -80.9728 268° West 372 428 30,000  Level Indianapolis Center
06:18PM 38.7900 -81.1036 267° West 369 425 30,000  Level Indianapolis Center
06:19PM 38.7858 -81.2344 268° West 369 425 30,000 -660 Level Indianapolis Center
06:20PM 38.7981 -81.3667 277° West 377 434 28,700 -1,380 Descending Indianapolis Center
06:21PM 38.8164 -81.5269 278° West 387 445 27,200 -1,380 Descending Indianapolis Center
06:22PM 38.8306 -81.6592 278° West 383 441 25,900 -1,260 Descending Indianapolis Center
06:23PM 38.8447 -81.7931 278° West 382 440 24,700 -1,140 Descending Indianapolis Center
06:24PM 38.8594 -81.9289 278° West 386 444 23,600 -1,140 Descending Indianapolis Center
06:25PM 38.8744 -82.0647 278° West 385 443 22,400 -1,440 Descending Indianapolis Center
06:26PM 38.8919 -82.2311 278° West 391 450 20,600 -1,200 Descending Indianapolis Center
06:27PM 38.9072 -82.3725 278° West 399 459 20,000 -300 Descending Indianapolis Center
06:28PM 38.9211 -82.5111 277° West 393 452 20,000  Level Indianapolis Center
06:29PM 38.9353 -82.6514 277° West 395 455 20,000  Level Indianapolis Center
06:30PM 38.9503 -82.7900 278° West 394 453 20,000 -60 Level Indianapolis Center
06:31PM 38.9639 -82.9303 277° West 395 455 19,900 -1,500 Descending Indianapolis Center
06:32PM 38.9803 -83.0997 277° West 398 458 16,900 -2,520 Descending Indianapolis Center
06:33PM 38.9931 -83.2294 277° West 383 441 14,800 -2,100 Descending Indianapolis Center
06:34PM 39.0058 -83.3567 277° West 367 422 12,600 -2,160 Descending Indianapolis Center
06:35PM 39.0172 -83.4819 277° West 357 411 10,400 -2,040 Descending Indianapolis Center
06:36PM 39.0281 -83.5972 277° West 334 384 8,500 -1,800 Descending Indianapolis Center
06:37PM 39.0381 -83.6944 278° West 288 331 6,700 -1,260 Descending Indianapolis Center
06:38PM 39.0486 -83.8131 277° West 280 322 6,000 -360 Descending Indianapolis Center
06:39PM 39.0578 -83.9081 277° West 274 315 6,000 -120 Level Indianapolis Center
06:40PM 39.0653 -84.0069 276° West 275 316 5,800 -540 Descending Indianapolis Center
06:41PM 39.0600 -84.1069 266° West 279 321 5,000 -840 Descending Indianapolis Center
06:42PM 39.0547 -84.2067 266° West 278 320 4,100 -720 Descending Indianapolis Center
06:44PM 39.0472 -84.3025 264° West 276 318 3,500 -1,020 Descending Indianapolis Center
06:45PM 39.0667 -84.4333 281° West 142 163 1,300 -1,200 Descending Cincinnati TRACON
06:47PM 39.1000 -84.4167 21° North  Level FlightAware Approximate
06:54PM 39.1033 -84.4186 21° North  Level Estimated